createdAt,value
2023-01-08T00:00:14.161Z,99741.09
2023-01-08T00:02:44.733Z,99751.13
2023-01-08T00:05:13.724Z,99762.72
2023-01-08T00:11:31.383Z,99750.50
2023-01-08T00:14:09.107Z,99751.78
2023-01-08T00:16:38.401Z,99755.06
2023-01-08T00:19:19.444Z,99741.19
2023-01-08T00:21:48.509Z,99748.13
2023-01-08T00:24:26.983Z,99726.94
2023-01-08T00:26:56.414Z,99719.34
2023-01-08T00:29:29.463Z,99714.69
2023-01-08T00:32:02.498Z,99714.16
2023-01-08T00:34:37.675Z,99719.28
2023-01-08T00:37:11.179Z,99711.22
2023-01-08T00:39:45.419Z,99720.47
2023-01-08T00:42:18.337Z,99705.91
2023-01-08T00:44:56.990Z,99706.31
2023-01-08T00:47:26.041Z,99703.44
2023-01-08T00:50:05.692Z,99704.56
2023-01-08T00:52:35.252Z,99702.09
2023-01-08T00:55:17.649Z,99693.66
2023-01-08T00:57:56.227Z,99693.50
2023-01-08T01:00:29.639Z,99691.19
2023-01-08T01:02:58.629Z,99688.38
2023-01-08T01:05:30.373Z,99695.16
2023-01-08T01:08:07.599Z,99687.56
2023-01-08T01:10:38.432Z,99684.06
2023-01-08T01:13:09.812Z,99683.72
2023-01-08T01:15:41.436Z,99682.38
2023-01-08T01:18:49.542Z,99693.44
2023-01-08T01:21:44.122Z,99685.66
2023-01-08T01:24:27.083Z,99689.50
2023-01-08T01:27:05.022Z,99669.84
2023-01-08T01:29:35.741Z,99673.69
2023-01-08T01:32:08.569Z,99682.53
2023-01-08T01:34:37.763Z,99669.66
2023-01-08T01:37:13.845Z,99673.25
2023-01-08T01:39:47.476Z,99669.13
2023-01-08T01:42:36.326Z,99670.78
2023-01-08T01:45:17.965Z,99662.19
2023-01-08T01:47:53.608Z,99651.59
2023-01-08T01:50:27.605Z,99655.69
2023-01-08T01:53:09.135Z,99649.22
2023-01-08T01:55:48.253Z,99638.34
2023-01-08T01:58:21.700Z,99632.03
2023-01-08T02:00:52.397Z,99639.44
2023-01-08T02:03:31.095Z,99625.91
2023-01-08T02:06:06.558Z,99639.53
2023-01-08T02:08:50.251Z,99632.56
2023-01-08T02:11:28.437Z,99643.09
2023-01-08T02:14:05.900Z,99633.31
2023-01-08T02:16:42.662Z,99621.91
2023-01-08T02:19:27.919Z,99620.09
2023-01-08T02:22:19.242Z,99617.03
2023-01-08T02:24:59.681Z,99622.16
2023-01-08T02:27:33.802Z,99610.56
2023-01-08T02:30:09.301Z,99623.16
2023-01-08T02:32:42.714Z,99630.28
2023-01-08T02:35:13.137Z,99624.81
2023-01-08T02:37:45.949Z,99616.88
2023-01-08T02:40:26.294Z,99620.34
2023-01-08T02:43:05.633Z,99610.56
2023-01-08T02:45:44.877Z,99606.56
2023-01-08T02:48:20.696Z,99611.38
2023-01-08T02:50:59.503Z,99599.13
2023-01-08T02:53:31.441Z,99596.97
2023-01-08T02:56:09.421Z,99596.50
2023-01-08T02:58:42.810Z,99597.31
2023-01-08T03:01:15.360Z,99593.38
2023-01-08T03:03:51.362Z,99593.03
2023-01-08T03:06:37.549Z,99577.13
2023-01-08T03:09:06.660Z,99586.91
2023-01-08T03:11:44.813Z,99573.66
2023-01-08T03:14:24.713Z,99576.94
2023-01-08T03:17:02.812Z,99576.94
2023-01-08T03:19:42.551Z,99568.19
2023-01-08T03:22:19.674Z,99563.53
2023-01-08T03:24:51.335Z,99561.22
2023-01-08T03:27:28.643Z,99561.69
2023-01-08T03:30:02.749Z,99559.88
2023-01-08T03:32:36.078Z,99545.34
2023-01-08T03:35:13.482Z,99551.91
2023-01-08T03:37:52.407Z,99554.56
2023-01-08T03:40:32.545Z,99540.50
2023-01-08T03:43:03.512Z,99544.16
2023-01-08T03:45:35.751Z,99541.31
2023-01-08T03:48:07.424Z,99542.13
2023-01-08T03:50:36.542Z,99536.38
2023-01-08T03:53:07.493Z,99526.78
2023-01-08T03:55:37.431Z,99527.06
2023-01-08T03:58:12.393Z,99545.06
2023-01-08T04:00:45.479Z,99550.97
2023-01-08T04:03:15.483Z,99548.78
2023-01-08T04:05:47.898Z,99552.91
2023-01-08T04:08:19.705Z,99556.19
2023-01-08T04:10:48.940Z,99548.69
2023-01-08T04:13:18.019Z,99547.41
2023-01-08T04:15:52.584Z,99539.09
2023-01-08T04:18:24.343Z,99535.03
2023-01-08T04:20:55.310Z,99532.66
2023-01-08T04:23:24.274Z,99528.75
2023-01-08T04:25:57.339Z,99524.06
2023-01-08T04:28:28.002Z,99513.47
2023-01-08T04:31:04.549Z,99525.34
2023-01-08T04:33:37.654Z,99506.97
2023-01-08T04:36:06.923Z,99505.78
2023-01-08T04:38:37.072Z,99496.38
2023-01-08T04:41:08.397Z,99498.66
2023-01-08T04:43:40.184Z,99489.69
2023-01-08T04:46:13.626Z,99488.06
2023-01-08T04:48:46.034Z,99484.97
2023-01-08T04:51:14.692Z,99488.06
2023-01-08T04:53:44.143Z,99477.63
2023-01-08T04:56:13.850Z,99489.69
2023-01-08T04:58:45.735Z,99480.53
2023-01-08T05:01:21.892Z,99472.38
2023-01-08T05:03:59.529Z,99470.19
2023-01-08T05:06:38.638Z,99460.13
2023-01-08T05:09:11.513Z,99465.69
2023-01-08T05:11:42.751Z,99455.66
2023-01-08T05:14:12.738Z,99440.16
2023-01-08T05:16:42.996Z,99446.06
2023-01-08T05:19:19.895Z,99440.75
2023-01-08T05:21:50.809Z,99444.03
2023-01-08T05:24:25.352Z,99444.03
2023-01-08T05:27:12.453Z,99449.44
2023-01-08T05:29:46.173Z,99451.63
2023-01-08T05:32:24.079Z,99444.13
2023-01-08T05:34:55.892Z,99443.75
2023-01-08T05:37:30.813Z,99432.69
2023-01-08T05:40:00.440Z,99427.22
2023-01-08T05:42:31.851Z,99433.16
2023-01-08T05:45:01.110Z,99429.03
2023-01-08T05:47:42.243Z,99419.81
2023-01-08T05:50:11.847Z,99432.69
2023-01-08T05:52:40.910Z,99430.69
2023-01-08T05:55:14.616Z,99434.56
2023-01-08T05:58:19.507Z,99419.25
2023-01-08T06:00:49.507Z,99422.13
2023-01-08T06:03:22.383Z,99407.63
2023-01-08T06:05:51.021Z,99408.47
2023-01-08T06:08:19.730Z,99391.91
2023-01-08T06:10:51.532Z,99385.41
2023-01-08T06:13:20.203Z,99384.63
2023-01-08T06:15:49.531Z,99398.53
2023-01-08T06:18:19.694Z,99390.75
2023-01-08T06:20:50.067Z,99384.38
2023-01-08T06:23:23.180Z,99389.75
2023-01-08T06:25:54.982Z,99392.41
2023-01-08T06:28:25.974Z,99405.28
2023-01-08T06:30:54.996Z,99409.94
2023-01-08T06:33:26.389Z,99385.00
2023-01-08T06:35:57.058Z,99373.41
2023-01-08T06:38:29.999Z,99373.59
2023-01-08T06:41:03.860Z,99373.41
2023-01-08T06:43:36.140Z,99363.38
2023-01-08T06:46:10.180Z,99364.59
2023-01-08T06:48:42.491Z,99375.03
2023-01-08T06:51:13.527Z,99366.44
2023-01-08T06:53:42.933Z,99375.47
2023-01-08T06:56:14.006Z,99367.09
2023-01-08T06:58:43.297Z,99378.75
2023-01-08T07:01:18.681Z,99374.28
2023-01-08T07:03:51.892Z,99382.88
2023-01-08T07:06:23.549Z,99366.31
2023-01-08T07:08:54.657Z,99365.69
2023-01-08T07:11:25.863Z,99377.56
2023-01-08T07:13:55.589Z,99356.28
2023-01-08T07:16:30.402Z,99368.34
2023-01-08T07:19:14.935Z,99360.97
2023-01-08T07:21:44.269Z,99365.06
2023-01-08T07:24:13.199Z,99355.53
2023-01-08T07:26:43.199Z,99361.66
2023-01-08T07:29:13.422Z,99360.38
2023-01-08T07:31:59.562Z,99364.50
2023-01-08T07:34:50.987Z,99366.97
2023-01-08T07:37:19.727Z,99359.56
2023-01-08T07:39:50.357Z,99359.38
2023-01-08T07:42:22.462Z,99354.47
2023-01-08T07:44:52.989Z,99356.28
2023-01-08T07:47:25.419Z,99346.31
2023-01-08T07:50:03.360Z,99350.41
2023-01-08T07:52:32.455Z,99339.63
2023-01-08T07:55:04.463Z,99346.16
2023-01-08T07:57:33.197Z,99345.31
2023-01-08T08:00:02.719Z,99341.47
2023-01-08T08:02:31.723Z,99350.25
2023-01-08T08:05:11.305Z,99349.44
2023-01-08T08:07:40.457Z,99350.06
2023-01-08T08:10:12.216Z,99354.72
2023-01-08T08:12:41.223Z,99353.34
2023-01-08T08:15:11.393Z,99362.31
2023-01-08T08:17:39.828Z,99360.91
2023-01-08T08:20:12.041Z,99344.13
2023-01-08T08:22:42.170Z,99344.19
2023-01-08T08:25:11.744Z,99345.22
2023-01-08T08:27:46.216Z,99352.16
2023-01-08T08:30:16.368Z,99349.13
2023-01-08T08:32:45.309Z,99345.84
2023-01-08T08:35:15.605Z,99350.56
2023-01-08T08:37:54.195Z,99341.38
2023-01-08T08:40:23.289Z,99335.03
2023-01-08T08:43:00.043Z,99322.81
2023-01-08T08:45:33.929Z,99310.78
2023-01-08T08:48:11.607Z,99289.56
2023-01-08T08:51:03.584Z,99296.94
2023-01-08T08:53:34.217Z,99307.38
2023-01-08T08:56:10.883Z,99303.50
2023-01-08T08:58:42.464Z,99301.69
2023-01-08T09:01:23.343Z,99310.84
2023-01-08T09:03:52.605Z,99292.72
2023-01-08T09:06:24.337Z,99304.78
2023-01-08T09:08:53.234Z,99297.44
2023-01-08T09:11:22.436Z,99299.03
2023-01-08T09:13:52.938Z,99294.34
2023-01-08T09:16:23.228Z,99306.22
2023-01-08T09:18:52.455Z,99308.28
2023-01-08T09:21:22.866Z,99297.88
2023-01-08T09:23:54.259Z,99303.19
2023-01-08T09:26:29.561Z,99307.47
2023-01-08T09:29:05.262Z,99290.28
2023-01-08T09:31:36.068Z,99296.47
2023-01-08T09:34:07.557Z,99303.41
2023-01-08T09:36:40.335Z,99299.94
2023-01-08T09:39:12.147Z,99301.56
2023-01-08T09:41:45.896Z,99301.38
2023-01-08T09:44:20.102Z,99297.28
2023-01-08T09:46:53.375Z,99313.84
2023-01-08T09:49:46.481Z,99302.00
2023-01-08T09:53:03.767Z,99302.00
2023-01-08T09:56:30.653Z,99275.47
2023-01-08T09:59:57.736Z,99290.38
2023-01-08T10:05:37.731Z,99268.72
2023-01-08T10:08:08.160Z,99275.66
2023-01-08T10:10:46.305Z,99280.38
2023-01-08T10:13:20.760Z,99272.59
2023-01-08T10:15:51.636Z,99285.06
2023-01-08T10:18:32.542Z,99263.00
2023-01-08T10:21:04.681Z,99275.69
2023-01-08T10:23:39.742Z,99267.72
2023-01-08T10:26:11.228Z,99261.78
2023-01-08T10:29:04.173Z,99265.47
2023-01-08T10:31:39.672Z,99265.69
2023-01-08T10:34:14.077Z,99250.97
2023-01-08T10:36:50.439Z,99250.78
2023-01-08T10:39:26.814Z,99238.31
2023-01-08T10:42:12.868Z,99235.84
2023-01-08T10:44:58.697Z,99228.13
2023-01-08T10:47:37.161Z,99239.34
2023-01-08T10:50:09.135Z,99232.59
2023-01-08T10:52:38.513Z,99233.63
2023-01-08T10:55:28.352Z,99240.38
2023-01-08T10:58:09.586Z,99225.66
2023-01-08T11:00:45.026Z,99238.53
2023-01-08T11:03:50.942Z,99222.78
2023-01-08T11:06:38.049Z,99235.25
2023-01-08T11:09:23.220Z,99235.47
2023-01-08T11:12:08.319Z,99219.91
2023-01-08T11:14:51.099Z,99230.78
2023-01-08T11:17:41.489Z,99214.63
2023-01-08T11:23:19.362Z,99217.28
2023-01-08T11:26:00.115Z,99216.28
2023-01-08T11:31:48.113Z,99205.03
2023-01-08T11:34:34.485Z,99204.63
2023-01-08T11:37:17.210Z,99197.88
2023-01-08T11:39:49.467Z,99199.53
2023-01-08T11:43:00.001Z,99187.47
2023-01-08T11:45:41.450Z,99181.13
2023-01-08T11:48:38.129Z,99188.25
2023-01-08T11:51:34.349Z,99181.94
2023-01-08T11:54:10.622Z,99188.69
2023-01-08T11:57:05.177Z,99177.03
2023-01-08T11:59:58.640Z,99178.28
2023-01-08T12:02:37.187Z,99176.81
2023-01-08T12:05:38.136Z,99166.84
2023-01-08T12:08:15.516Z,99163.34
2023-01-08T12:10:57.835Z,99167.00
2023-01-08T12:13:50.486Z,99173.75
2023-01-08T12:16:48.184Z,99165.81
2023-01-08T12:19:30.864Z,99158.03
2023-01-08T12:22:26.089Z,99158.22
2023-01-08T12:25:29.267Z,99153.13
2023-01-08T12:28:12.759Z,99153.34
2023-01-08T12:30:52.913Z,99150.28
2023-01-08T12:33:31.251Z,99157.03
2023-01-08T12:36:07.594Z,99157.22
2023-01-08T12:38:40.088Z,99143.53
2023-01-08T12:41:16.861Z,99155.00
2023-01-08T12:43:57.969Z,99154.56
2023-01-08T12:46:53.534Z,99147.63
2023-01-08T12:49:37.378Z,99148.03
2023-01-08T12:52:23.388Z,99142.31
2023-01-08T12:55:11.745Z,99145.19
2023-01-08T12:57:53.192Z,99143.13
2023-01-08T13:03:37.712Z,99143.94
2023-01-08T13:06:14.468Z,99137.19
2023-01-08T13:08:49.308Z,99128.22
2023-01-08T13:11:29.152Z,99126.78
2023-01-08T13:14:12.655Z,99129.44
2023-01-08T13:16:58.387Z,99120.84
2023-01-08T13:19:29.618Z,99116.97
2023-01-08T13:22:03.972Z,99122.31
2023-01-08T13:24:56.696Z,99116.78
2023-01-08T13:31:09.998Z,99122.69
2023-01-08T13:33:57.063Z,99113.53
2023-01-08T13:36:41.775Z,99107.19
2023-01-08T13:39:25.420Z,99105.94
2023-01-08T13:42:07.530Z,99096.78
2023-01-08T13:45:24.459Z,99103.28
2023-01-08T13:56:58.831Z,99092.47
2023-01-08T14:02:34.088Z,99083.09
2023-01-08T14:14:11.931Z,99084.72
2023-01-08T14:16:46.611Z,99079.59
2023-01-08T14:19:33.912Z,99082.50
2023-01-08T14:22:13.980Z,99076.16
2023-01-08T14:24:46.564Z,99081.25
2023-01-08T14:27:35.686Z,99069.59
2023-01-08T14:33:46.956Z,99071.03
2023-01-08T14:36:31.689Z,99069.41
2023-01-08T14:39:01.133Z,99064.31
2023-01-08T14:42:00.870Z,99064.94
2023-01-08T14:44:49.076Z,99063.91
2023-01-08T14:47:27.370Z,99069.59
2023-01-08T14:49:56.557Z,99061.03
2023-01-08T14:52:29.186Z,99057.78
2023-01-08T14:55:03.188Z,99058.59
2023-01-08T14:57:45.444Z,99056.94
2023-01-08T15:00:24.675Z,99055.50
2023-01-08T15:03:25.276Z,99055.69
2023-01-08T15:05:56.866Z,99047.97
2023-01-08T15:08:30.011Z,99050.81
2023-01-08T15:11:09.029Z,99044.06
2023-01-08T15:13:53.011Z,99053.91
2023-01-08T15:16:39.861Z,99050.63
2023-01-08T15:19:20.846Z,99037.75
2023-01-08T15:24:54.350Z,99040.03
2023-01-08T15:27:23.855Z,99032.25
2023-01-08T15:29:59.968Z,99029.81
2023-01-08T15:32:32.959Z,99039.00
2023-01-08T15:35:03.323Z,99033.47
2023-01-08T15:37:50.760Z,99020.41
2023-01-08T15:40:30.083Z,99027.53
2023-01-08T15:43:14.585Z,99029.59
2023-01-08T15:48:43.393Z,99017.16
2023-01-08T15:51:24.774Z,99036.13
2023-01-08T15:53:56.879Z,99023.47
2023-01-08T15:56:28.367Z,99026.75
2023-01-08T15:58:58.589Z,99024.69
2023-01-08T16:01:34.888Z,99014.50
2023-01-08T16:04:58.419Z,99025.09
2023-01-08T16:07:32.630Z,99016.72
2023-01-08T16:10:27.541Z,99006.53
2023-01-08T16:13:12.009Z,99007.53
2023-01-08T16:15:49.359Z,99008.34
2023-01-08T16:18:23.619Z,99010.19
2023-01-08T16:21:03.735Z,99011.00
2023-01-08T16:23:35.648Z,99003.44
2023-01-08T16:33:13.335Z,99005.88
2023-01-08T16:35:56.603Z,98993.66
2023-01-08T16:38:28.065Z,98992.84
2023-01-08T16:57:11.553Z,98982.00
2023-01-08T17:05:28.061Z,98973.44
2023-01-08T17:13:49.704Z,98983.66
2023-01-08T17:16:33.041Z,98974.69
2023-01-08T17:19:07.964Z,98973.66
2023-01-08T17:21:43.579Z,98972.66
2023-01-08T17:24:22.399Z,98974.88
2023-01-08T17:26:57.906Z,98971.59
2023-01-08T17:29:30.230Z,98968.56
2023-01-08T17:32:09.664Z,98959.78
2023-01-08T17:34:51.464Z,98964.47
2023-01-08T17:37:23.876Z,98973.66
2023-01-08T17:39:54.949Z,98967.53
2023-01-08T17:42:27.954Z,98963.06
2023-01-08T17:45:08.678Z,98955.09
2023-01-08T17:47:37.494Z,98955.09
2023-01-08T17:55:52.306Z,98953.47
2023-01-08T17:58:26.006Z,98946.31
2023-01-08T18:01:03.322Z,98939.38
2023-01-08T18:03:43.358Z,98946.31
2023-01-08T18:06:14.910Z,98933.25
2023-01-08T18:08:57.202Z,98938.34
2023-01-08T18:11:44.664Z,98935.09
2023-01-08T18:14:17.889Z,98925.50
2023-01-08T18:17:08.942Z,98937.53
2023-01-08T18:19:39.047Z,98927.34
2023-01-08T18:22:25.440Z,98933.25
2023-01-08T18:25:09.051Z,98920.38
2023-01-08T18:36:58.763Z,98931.00
2023-01-08T18:45:53.843Z,98929.19
2023-01-08T18:51:27.649Z,98923.06
2023-01-08T19:00:09.585Z,98921.44
2023-01-08T19:02:40.440Z,98923.47
2023-01-08T19:05:22.524Z,98921.22
2023-01-08T19:07:53.932Z,98927.34
2023-01-08T19:10:56.649Z,98927.34
2023-01-08T19:13:28.465Z,98922.44
2023-01-08T19:16:03.732Z,98912.44
2023-01-08T19:18:44.619Z,98922.25
2023-01-08T19:21:23.206Z,98918.81
2023-01-08T19:23:59.772Z,98926.94
2023-01-08T19:26:37.412Z,98921.84
2023-01-08T19:29:28.435Z,98935.72
2023-01-08T19:32:14.635Z,98925.13
2023-01-08T19:35:09.444Z,98927.16
2023-01-08T19:37:43.500Z,98930.81
2023-01-08T19:40:36.896Z,98924.31
2023-01-08T19:43:29.104Z,98932.47
2023-01-08T19:46:18.382Z,98928.97
2023-01-08T19:51:35.711Z,98931.22
2023-01-08T19:54:18.672Z,98919.84
2023-01-08T19:57:10.548Z,98927.97
2023-01-08T20:02:42.721Z,98933.28
2023-01-08T20:16:26.371Z,98928.81
2023-01-08T20:22:42.512Z,98924.09
2023-01-08T20:25:19.508Z,98921.47
2023-01-08T20:28:04.528Z,98924.31
2023-01-08T20:30:47.440Z,98915.75
2023-01-08T20:33:45.387Z,98920.84
2023-01-08T20:36:32.966Z,98913.50
2023-01-08T20:42:05.033Z,98911.66
2023-01-08T20:44:34.662Z,98916.16
2023-01-08T20:47:04.113Z,98926.97
2023-01-08T20:49:36.473Z,98914.91
2023-01-08T20:52:06.704Z,98914.72
2023-01-08T20:54:39.996Z,98906.16
2023-01-08T20:57:09.692Z,98909.63
2023-01-08T20:59:40.950Z,98912.47
2023-01-08T21:02:12.546Z,98905.97
2023-01-08T21:04:44.966Z,98915.53
2023-01-08T21:07:14.732Z,98916.56
2023-01-08T21:09:45.224Z,98915.34
2023-01-08T21:12:15.550Z,98922.03
2023-01-08T21:14:45.068Z,98911.44
2023-01-08T21:17:14.775Z,98914.09
2023-01-08T21:19:48.865Z,98907.78
2023-01-08T21:22:19.209Z,98907.59
2023-01-08T21:24:49.836Z,98914.72
2023-01-08T21:27:21.912Z,98909.63
2023-01-08T21:29:52.949Z,98907.56
2023-01-08T21:32:23.177Z,98909.22
2023-01-08T21:34:54.125Z,98901.03
2023-01-08T21:37:39.785Z,98907.56
2023-01-08T21:40:09.613Z,98903.09
2023-01-08T21:42:57.727Z,98890.84
2023-01-08T21:45:36.424Z,98899.63
2023-01-08T21:54:59.723Z,98907.56
2023-01-08T21:57:30.890Z,98905.75
2023-01-08T21:59:59.575Z,98900.22
2023-01-08T22:02:29.276Z,98903.09
2023-01-08T22:04:58.611Z,98906.78
2023-01-08T22:07:38.289Z,98902.88
2023-01-08T22:10:08.494Z,98904.31
2023-01-08T22:12:42.492Z,98906.34
2023-01-08T22:15:14.943Z,98904.31
2023-01-08T22:17:44.042Z,98905.53
2023-01-08T22:20:14.488Z,98905.53
2023-01-08T22:22:47.529Z,98904.94
2023-01-08T22:25:17.834Z,98910.81
2023-01-08T22:27:52.006Z,98902.88
2023-01-08T22:30:21.731Z,98910.81
2023-01-08T22:32:51.193Z,98913.47
2023-01-08T22:35:20.848Z,98906.34
2023-01-08T22:37:51.890Z,98908.41
2023-01-08T22:40:34.761Z,98902.28
2023-01-08T22:43:04.758Z,98896.56
2023-01-08T22:45:34.214Z,98900.84
2023-01-08T22:48:05.581Z,98899.81
2023-01-08T22:50:34.696Z,98904.94
2023-01-08T22:53:07.292Z,98895.75
2023-01-08T22:55:36.675Z,98894.13
2023-01-08T22:58:09.169Z,98893.31
2023-01-08T23:00:41.262Z,98888.63
2023-01-08T23:03:16.432Z,98892.50
2023-01-08T23:05:51.860Z,98889.66
2023-01-08T23:08:22.492Z,98876.19
2023-01-08T23:10:59.358Z,98887.38
2023-01-08T23:13:30.476Z,98873.09
2023-01-08T23:15:59.746Z,98885.34
2023-01-08T23:18:30.156Z,98889.41
2023-01-08T23:21:04.759Z,98883.31
2023-01-08T23:23:35.228Z,98871.69
2023-01-08T23:26:09.932Z,98878.22
2023-01-08T23:28:39.763Z,98878.00
2023-01-08T23:31:09.750Z,98877.97
2023-01-08T23:33:44.862Z,98873.09
2023-01-08T23:36:19.075Z,98883.91
2023-01-08T23:38:51.797Z,98873.91
2023-01-08T23:41:36.024Z,98884.31
2023-01-08T23:44:13.596Z,98878.81
2023-01-08T23:46:42.465Z,98879.22
2023-01-08T23:49:16.295Z,98877.41
2023-01-08T23:51:47.963Z,98892.88
2023-01-08T23:54:34.177Z,98885.34
2023-01-08T23:57:08.459Z,98884.09
2023-01-08T23:59:38.752Z,98876.16
